Accueil
METAR-TAF:

METAR-TAF

Aéroports :

Aéroport international d'Adana-Sakirpasa

Adana, Turquie

latitude: 36-59N, longitude: 035-18E, altitude: 20 m

Observation

Le bulletin a été fait il y a 29 minutes, à 06:20 UTC
Vent 7 kt de nord/nord-est, variant entre nord et nord-est
Température 30°C
Humidité 38%
Pression 1007 hPa
Visibilité 10 km ou plus
pas de nuages en-dessous de 1500 mètres et pas de cumulonimbus.

METAR: LTAF 240620Z 02007KT 350V050 CAVOK 30/14 Q1007 NOSIG RMK RWY23 06007KT 030V090

Heure: 09:49 (06:49 UTC)


TAF: absent

Observations et prévisions météorologiques de plus de 4000 aéroports (messages METAR et TAF).

Les stations disponibles sont représentées par des disques jaunes et rouges sur la carte.

Passer la souris dessus pour voir le nom de la station.

Cliquer dessus pour voir les observations et prévisions météorologiques.

Pour changer de carte: cliquez sur les boutons verts avec une croix noire pour zoomer, sur le bouton vert avec un tiret pour effectuer un zoom arrière, ou sur les flèches vertes pour les cartes adjacentes.


METAR-TAF: